Portada
METAR-TAF:

METAR-TAF

Aeropuertos :

Aeropuerto Internacional de Kosrae

Kosrae, Micronesia

latitud: 05-21N, longitud: 162-57E, altitud: 3 m

Observación

El informe se hizo hace 6 horas y 6 minutos, a las 23:50 UTC
Viento 12 kt del este
Temperatura 31°C
Humedad 66%
Presión 1009 hPa
Visibilidad: 16.1 km
Nubes dispersas a una altura de 2200 ft
Cielo nuboso a una altura de 13000 ft
Cielo nuboso a una altura de 30000 ft

METAR: PTSA 112350Z 09012KT 10SM SCT022 BKN130 BKN300 31/24 A2979 RMK LAST

Hora: 16:56 (05:56 UTC)

Pronóstico

El informe se hizo hace 6 horas y 24 minutos, a las 23:32 UTC
Pronóstico válido del 12 a las 00 UTC al 12 a las 24 UTC
Viento 15 kt del este-sureste
Visibilidad: 10 km
Nubes dispersas a una altura de 1800 ft

TAF: PTSA 112332Z 1200/1224 11015KT P6SM SCT018

Observaciones y pronósticos meteorológicos de más de 4000 aeropuertos (mensajes METAR y TAF).

Los puntos amarillos y rojos representan las estaciones disponibles.

Ponga el ratón en el punto deseado para ver el nombre de la estación.

Haga clic para ver las observaciones y los pronósticos meteorológicos.

Para cambiar el mapa : haga clic en los botones verdes con una cruz de color negro para hacer un zoom, en el botón verde con un guión para alejar o en las flechas verdes para mapas adyacentes.


METAR-TAF: